Time;durP1;ratioP1;P1;durP2;ratioP2;P2;SDS_P1;SDS_P2;PMS_P1;PMS_P2;Temp;Humidity;BMP_temperature;BMP_pressure;BME280_temperature;BME280_humidity;BME280_pressure;Samples;Min_cycle;Max_cycle;Signal;HPM_P1;HPM_P2
2022/05/16 00:00:43;;;;;;;6.30;2.20;;;384.90;1971.20;;;;;;5032439;28;20543;-59
2022/05/16 00:03:08;;;;;;;1.90;1.55;;;384.90;1971.20;;;;;;5032178;28;20030;-55
2022/05/16 00:05:34;;;;;;;2.58;1.58;;;384.90;1945.60;;;;;;5032352;28;20029;-56
2022/05/16 00:08:00;;;;;;;4.82;2.17;;;384.80;1996.80;;;;;;5032187;28;20480;-56
2022/05/16 00:10:26;;;;;;;2.53;1.50;;;384.70;1996.80;;;;;;5032007;28;20117;-58
2022/05/16 00:12:52;;;;;;;2.10;1.50;;;384.70;1996.80;;;;;;5032362;28;20076;-58
2022/05/16 00:15:21;;;;;;;3.53;1.65;;;384.80;1971.20;;;;;;5031941;28;20079;-58
2022/05/16 00:17:47;;;;;;;1.98;1.40;;;384.80;1996.80;;;;;;5031891;28;20068;-55
2022/05/16 00:20:13;;;;;;;2.63;1.40;;;384.70;2022.40;;;;;;5032207;28;20109;-57
2022/05/16 00:22:39;;;;;;;2.97;1.77;;;384.70;2022.40;;;;;;5032395;28;20021;-55
2022/05/16 00:25:08;;;;;;;3.35;1.80;;;384.70;1996.80;;;;;;5031482;28;20561;-55
2022/05/16 00:27:37;;;;;;;3.13;1.65;;;384.90;1971.20;;;;;;5031775;28;20151;-56
2022/05/16 00:30:08;;;;;;;3.70;1.63;;;384.90;1945.60;;;;;;5031873;28;20029;-55
2022/05/16 00:32:34;;;;;;;2.55;1.35;;;409.60;1971.20;;;;;;5031569;28;20061;-58
2022/05/16 00:35:00;;;;;;;1.83;1.27;;;409.60;1971.20;;;;;;5031718;28;20460;-59
2022/05/16 00:37:26;;;;;;;2.30;1.70;;;409.60;1945.60;;;;;;5031369;28;20034;-55
2022/05/16 00:39:52;;;;;;;2.38;1.73;;;409.60;1971.20;;;;;;5031872;28;20112;-59
2022/05/16 00:42:21;;;;;;;2.28;1.65;;;409.60;1971.20;;;;;;5031373;28;20463;-59
2022/05/16 00:44:47;;;;;;;3.40;1.75;;;409.60;1971.20;;;;;;5031257;28;20037;-57
2022/05/16 00:47:13;;;;;;;2.42;1.40;;;384.90;1971.20;;;;;;5031534;28;20034;-58
2022/05/16 00:49:43;;;;;;;4.57;1.83;;;384.90;1971.20;;;;;;5031481;28;20032;-57
2022/05/16 00:52:16;;;;;;;3.83;1.73;;;384.90;1996.80;;;;;;5031420;28;20498;-58
2022/05/16 00:54:49;;;;;;;2.13;1.38;;;384.80;2048.00;;;;;;5031401;28;20575;-59
2022/05/16 00:57:18;;;;;;;2.30;1.27;;;384.90;1996.80;;;;;;5031241;28;20037;-55
2022/05/16 01:00:14;;;;;;;5.13;2.03;;;384.80;2048.00;;;;;;5031160;28;20072;-57
2022/05/16 01:05:46;;;;;;;2.72;1.60;;;384.70;2048.00;;;;;;4950864;29;20549;-54
2022/05/16 01:08:17;;;;;;;2.90;1.90;;;384.70;2048.00;;;;;;5014570;28;20049;-55
2022/05/16 01:10:43;;;;;;;3.35;1.75;;;384.70;2073.60;;;;;;5031300;28;20376;-57
2022/05/16 01:13:10;;;;;;;1.70;1.45;;;384.60;2073.60;;;;;;5027715;28;20499;-58
2022/05/16 01:15:38;;;;;;;3.53;1.42;;;384.60;2099.20;;;;;;5028083;28;20034;-59
2022/05/16 01:18:06;;;;;;;2.75;1.73;;;384.40;2150.40;;;;;;5030999;28;20029;-54
2022/05/16 01:20:44;;;;;;;2.00;1.35;;;384.40;2176.00;;;;;;5030988;28;20018;-54
2022/05/16 01:23:14;;;;;;;2.60;1.70;;;384.40;2201.60;;;;;;5031117;28;20025;-59
2022/05/16 01:25:40;;;;;;;3.20;1.92;;;384.30;2227.20;;;;;;5030866;28;20054;-58
2022/05/16 01:28:06;;;;;;;2.00;1.33;;;384.00;2329.60;;;;;;5030470;28;20048;-58
2022/05/16 01:30:37;;;;;;;2.35;1.40;;;384.00;2304.00;;;;;;5030715;28;20029;-59
2022/05/16 01:33:03;;;;;;;3.28;1.90;;;384.10;2304.00;;;;;;5030751;28;20384;-55
2022/05/16 01:35:31;;;;;;;3.90;1.55;;;384.10;2252.80;;;;;;5030240;28;20036;-55
2022/05/16 01:40:42;;;;;;;2.83;1.60;;;384.10;2278.40;;;;;;5030815;28;20037;-56
2022/05/16 01:43:09;;;;;;;3.00;1.95;;;384.20;2227.20;;;;;;5030591;28;20168;-55
2022/05/16 01:45:36;;;;;;;2.30;1.42;;;384.10;2201.60;;;;;;5030261;28;20022;-56
2022/05/16 01:48:02;;;;;;;2.22;1.40;;;384.30;2227.20;;;;;;5030342;28;20389;-56
2022/05/16 01:50:28;;;;;;;2.20;1.35;;;384.20;2227.20;;;;;;5029665;28;20110;-55
2022/05/16 01:52:54;;;;;;;1.90;1.48;;;384.20;2252.80;;;;;;5030607;28;21052;-55
2022/05/16 01:55:20;;;;;;;2.28;1.42;;;384.20;2227.20;;;;;;5030462;28;20048;-59
2022/05/16 01:57:46;;;;;;;4.38;1.70;;;384.10;2278.40;;;;;;5030167;28;20104;-56
2022/05/16 02:00:14;;;;;;;4.18;1.92;;;384.10;2304.00;;;;;;5030291;28;20464;-55
2022/05/16 02:02:42;;;;;;;4.38;1.60;;;384.10;2304.00;;;;;;5030421;28;20029;-56
2022/05/16 02:05:10;;;;;;;3.20;1.60;;;384.10;2329.60;;;;;;5030118;28;20036;-54
2022/05/16 02:07:36;;;;;;;3.40;1.65;;;384.10;2329.60;;;;;;5029979;28;20045;-55
2022/05/16 02:10:02;;;;;;;2.22;1.63;;;384.00;2329.60;;;;;;5030375;28;20033;-55
2022/05/16 02:12:28;;;;;;;2.00;1.48;;;359.30;2329.60;;;;;;5029913;28;20022;-55
2022/05/16 02:14:54;;;;;;;2.42;1.40;;;384.00;2329.60;;;;;;5030007;28;20064;-58
2022/05/16 02:17:19;;;;;;;2.85;1.67;;;359.30;2329.60;;;;;;5029381;28;20037;-57
2022/05/16 02:19:45;;;;;;;2.70;1.52;;;359.20;2329.60;;;;;;5029814;28;20029;-56
2022/05/16 02:24:55;;;;;;;2.63;1.30;;;359.20;2329.60;;;;;;5029563;28;20044;-57
2022/05/16 02:27:21;;;;;;;9.00;1.90;;;359.10;2329.60;;;;;;5029758;28;20038;-57
2022/05/16 02:29:46;;;;;;;4.03;1.55;;;359.20;2329.60;;;;;;5029422;28;20176;-56
2022/05/16 02:32:13;;;;;;;3.22;1.70;;;359.10;2329.60;;;;;;5029626;28;20044;-57
2022/05/16 02:34:39;;;;;;;4.00;1.90;;;359.10;2329.60;;;;;;5029725;28;20027;-57
2022/05/16 02:37:07;;;;;;;4.30;1.75;;;359.10;2329.60;;;;;;5029656;28;20109;-58
2022/05/16 02:39:33;;;;;;;3.20;1.63;;;359.10;2329.60;;;;;;5029831;28;20033;-57
2022/05/16 02:41:58;;;;;;;3.25;2.15;;;359.10;2329.60;;;;;;5029478;28;20082;-58
2022/05/16 02:44:24;;;;;;;3.28;1.85;;;359.00;2329.60;;;;;;5029507;28;20108;-58
2022/05/16 02:46:50;;;;;;;2.47;1.67;;;359.00;2329.60;;;;;;5011523;28;20040;-57
2022/05/16 02:49:16;;;;;;;3.22;1.75;;;359.00;2329.60;;;;;;5029496;28;20653;-58
2022/05/16 02:51:42;;;;;;;1.73;1.30;;;359.00;2329.60;;;;;;5029709;28;20022;-57
2022/05/16 02:54:08;;;;;;;2.75;1.70;;;359.00;2329.60;;;;;;5029528;28;20109;-58
2022/05/16 02:56:34;;;;;;;4.38;1.63;;;359.00;2329.60;;;;;;5029680;28;20030;-57
2022/05/16 02:59:00;;;;;;;3.17;1.50;;;358.90;2329.60;;;;;;5029621;28;20064;-58
2022/05/16 03:01:26;;;;;;;2.67;1.63;;;358.80;2329.60;;;;;;5030498;28;20567;-55
2022/05/16 03:03:52;;;;;;;2.60;1.80;;;358.90;2329.60;;;;;;5033435;28;20028;-60
2022/05/16 03:06:18;;;;;;;2.83;1.70;;;358.80;2329.60;;;;;;5033358;28;20021;-59
2022/05/16 03:08:44;;;;;;;2.70;1.70;;;358.80;2329.60;;;;;;5033459;28;20044;-57
2022/05/16 03:11:10;;;;;;;2.55;1.55;;;358.70;2329.60;;;;;;5033753;28;20030;-58
2022/05/16 03:13:36;;;;;;;2.28;1.60;;;358.70;2329.60;;;;;;5033136;28;20030;-58
2022/05/16 03:16:03;;;;;;;2.40;1.80;;;358.80;2329.60;;;;;;5033168;28;20518;-58
2022/05/16 03:18:31;;;;;;;3.55;1.60;;;358.90;2329.60;;;;;;5033056;28;20022;-58
2022/05/16 03:20:57;;;;;;;2.70;1.60;;;358.80;2329.60;;;;;;5032902;28;20037;-57
2022/05/16 03:23:24;;;;;;;4.32;2.40;;;358.80;2329.60;;;;;;5032936;28;20022;-57
2022/05/16 03:25:50;;;;;;;2.40;1.70;;;358.80;2329.60;;;;;;5033246;28;20042;-57
2022/05/16 03:28:16;;;;;;;2.50;1.73;;;358.90;2329.60;;;;;;5032696;28;20041;-56
2022/05/16 03:30:43;;;;;;;3.28;1.67;;;359.00;2329.60;;;;;;5032983;28;20026;-58
2022/05/16 03:33:09;;;;;;;3.38;1.85;;;359.00;2329.60;;;;;;5032558;28;20036;-58
2022/05/16 03:35:35;;;;;;;2.33;1.58;;;359.00;2329.60;;;;;;5032964;28;20022;-55
2022/05/16 03:38:02;;;;;;;4.07;1.83;;;359.10;2329.60;;;;;;5033065;28;20025;-58
2022/05/16 03:40:42;;;;;;;3.60;1.67;;;359.20;2329.60;;;;;;5032564;28;20467;-58
2022/05/16 03:43:14;;;;;;;3.08;1.83;;;359.10;2329.60;;;;;;5032761;28;20022;-59
2022/05/16 03:45:41;;;;;;;3.20;1.70;;;359.20;2329.60;;;;;;5032772;28;20030;-58
2022/05/16 03:48:08;;;;;;;2.90;1.73;;;359.30;2329.60;;;;;;5032747;28;20041;-57
2022/05/16 03:50:35;;;;;;;3.60;1.70;;;359.30;2329.60;;;;;;5032869;28;20045;-57
2022/05/16 03:53:01;;;;;;;3.97;1.73;;;384.10;2329.60;;;;;;5032588;28;20045;-59
2022/05/16 03:55:29;;;;;;;1.90;1.50;;;384.10;2329.60;;;;;;5032419;28;20104;-57
2022/05/16 03:57:55;;;;;;;1.75;1.33;;;384.20;2329.60;;;;;;5032465;28;20021;-57
2022/05/16 04:00:21;;;;;;;3.13;2.33;;;384.30;2329.60;;;;;;5032445;28;20021;-58
2022/05/16 04:02:47;;;;;;;5.32;2.63;;;384.40;2329.60;;;;;;5032308;28;20087;-56
2022/05/16 04:05:18;;;;;;;3.92;1.70;;;384.40;2329.60;;;;;;5032739;28;20021;-55
2022/05/16 04:07:46;;;;;;;2.83;1.63;;;384.50;2329.60;;;;;;5032339;28;20029;-58
2022/05/16 04:10:12;;;;;;;2.47;1.67;;;384.40;2329.60;;;;;;5032586;28;20029;-58
2022/05/16 04:12:38;;;;;;;2.97;1.55;;;384.50;2329.60;;;;;;5031639;28;20029;-58
2022/05/16 04:15:05;;;;;;;3.05;1.80;;;384.60;2329.60;;;;;;5031947;28;20411;-57
2022/05/16 04:17:30;;;;;;;3.65;2.10;;;384.70;2329.60;;;;;;5032275;28;20025;-58
2022/05/16 04:19:56;;;;;;;3.08;1.60;;;384.70;2329.60;;;;;;5031910;28;20107;-58
2022/05/16 04:22:22;;;;;;;2.30;1.67;;;384.90;2329.60;;;;;;5032209;28;20029;-59
2022/05/16 04:24:48;;;;;;;2.28;1.60;;;409.70;2355.20;;;;;;5031665;28;20156;-57
2022/05/16 04:27:15;;;;;;;2.75;1.65;;;409.80;2355.20;;;;;;5031914;28;20095;-58
2022/05/16 04:29:41;;;;;;;1.65;1.40;;;409.90;2355.20;;;;;;5031955;28;20025;-58
2022/05/16 04:32:07;;;;;;;2.58;1.55;;;409.90;2355.20;;;;;;5028369;28;20052;-56
2022/05/16 04:34:33;;;;;;;3.10;1.88;;;410.00;2355.20;;;;;;5032351;28;20025;-58
2022/05/16 04:36:58;;;;;;;3.95;2.13;;;410.20;2355.20;;;;;;5031895;28;20033;-56
2022/05/16 04:39:24;;;;;;;2.95;1.88;;;410.50;2329.60;;;;;;5027014;28;20091;-58
2022/05/16 04:44:38;;;;;;;3.80;2.42;;;435.50;2252.80;;;;;;5008709;28;20611;-59
2022/05/16 04:47:08;;;;;;;3.17;2.00;;;512.90;1868.80;;;;;;5011255;28;20032;-56
2022/05/16 04:49:34;;;;;;;3.97;2.08;;;640.10;1484.80;;;;;;5011847;28;20117;-56
2022/05/16 04:52:00;;;;;;;4.15;2.78;;;692.10;1305.60;;;;;;5011256;28;20145;-57
2022/05/16 04:54:27;;;;;;;3.10;2.53;;;743.00;1228.80;;;;;;5011796;28;20495;-58
2022/05/16 04:56:53;;;;;;;6.22;2.85;;;793.80;1152.00;;;;;;5012072;28;20100;-60
2022/05/16 04:59:20;;;;;;;3.10;2.42;;;820.10;1075.20;;;;;;5011829;28;20026;-59
2022/05/16 05:01:47;;;;;;;3.00;2.60;;;870.50;1024.00;;;;;;5010930;28;20088;-58
2022/05/16 05:04:13;;;;;;;3.72;2.75;;;871.20;972.80;;;;;;5010952;28;20030;-55
2022/05/16 05:06:39;;;;;;;3.63;3.15;;;871.10;972.80;;;;;;5011469;28;20030;-58
2022/05/16 05:09:06;;;;;;;3.40;2.95;;;871.20;972.80;;;;;;5011229;28;20080;-56
2022/05/16 05:14:34;;;;;;;3.97;3.58;;;922.00;921.60;;;;;;5011679;28;20045;-57
2022/05/16 05:17:06;;;;;;;3.30;3.00;;;947.50;896.00;;;;;;5011576;28;20022;-60
2022/05/16 05:19:34;;;;;;;4.03;3.63;;;947.30;896.00;;;;;;5011747;28;20057;-59
2022/05/16 05:21:59;;;;;;;3.88;3.20;;;922.50;896.00;;;;;;5011449;28;20022;-60
2022/05/16 05:24:26;;;;;;;3.95;3.38;;;947.70;896.00;;;;;;5012461;28;20129;-57
2022/05/16 05:26:52;;;;;;;4.18;3.78;;;972.80;896.00;;;;;;5011561;28;20095;-57
2022/05/16 05:29:19;;;;;;;3.83;3.45;;;973.00;870.40;;;;;;5011245;28;20029;-60
2022/05/16 05:31:46;;;;;;;4.30;3.92;;;973.70;844.80;;;;;;5011072;28;20053;-59
2022/05/16 05:34:12;;;;;;;5.10;4.70;;;998.90;844.80;;;;;;5011541;28;20029;-58
2022/05/16 05:36:39;;;;;;;5.43;5.03;;;1024.10;819.20;;;;;;5015995;28;20104;-60
2022/05/16 05:39:06;;;;;;;5.07;4.68;;;1024.30;819.20;;;;;;5030663;28;20021;-60
2022/05/16 05:41:32;;;;;;;6.43;4.60;;;1050.10;819.20;;;;;;5030974;28;20021;-60
2022/05/16 05:43:58;;;;;;;5.32;4.93;;;1075.50;793.60;;;;;;5030538;28;20448;-59
2022/05/16 05:46:23;;;;;;;5.40;5.00;;;1075.70;768.00;;;;;;5030704;28;20065;-62
2022/05/16 05:48:49;;;;;;;6.43;6.00;;;1100.90;768.00;;;;;;5030561;28;20025;-61
2022/05/16 05:51:16;;;;;;;8.05;7.25;;;1126.50;793.60;;;;;;5030363;28;20017;-63
2022/05/16 05:53:42;;;;;;;6.57;6.10;;;1126.70;768.00;;;;;;5030382;28;20542;-62
2022/05/16 05:56:11;;;;;;;5.85;5.03;;;1127.00;768.00;;;;;;5030432;28;20036;-62
2022/05/16 05:58:37;;;;;;;5.70;5.30;;;1152.40;742.40;;;;;;5030202;28;20144;-62
2022/05/16 06:01:04;;;;;;;5.93;5.43;;;1177.60;716.80;;;;;;5030555;28;20017;-62
2022/05/16 06:03:30;;;;;;;6.28;5.88;;;1178.00;691.20;;;;;;5030382;28;20545;-62
2022/05/16 06:05:56;;;;;;;7.53;6.93;;;1152.50;716.80;;;;;;5030256;28;20063;-63
2022/05/16 06:08:22;;;;;;;6.57;6.05;;;1177.60;716.80;;;;;;5030310;28;20061;-61
2022/05/16 06:10:49;;;;;;;6.25;5.85;;;1152.70;716.80;;;;;;5030096;28;20063;-62
2022/05/16 06:13:16;;;;;;;7.80;7.30;;;1177.70;716.80;;;;;;5030256;28;20021;-62
2022/05/16 06:15:42;;;;;;;8.52;7.82;;;1152.40;742.40;;;;;;5030361;28;20497;-62
2022/05/16 06:18:08;;;;;;;8.57;7.97;;;1101.50;768.00;;;;;;5030028;28;20364;-63
2022/05/16 06:20:34;;;;;;;8.23;7.72;;;1126.40;768.00;;;;;;5029942;28;20029;-62
2022/05/16 06:23:00;;;;;;;7.50;7.00;;;1075.40;819.20;;;;;;5030113;28;20042;-63
2022/05/16 06:25:32;;;;;;;7.93;7.40;;;1075.50;793.60;;;;;;5029673;28;20092;-63
2022/05/16 06:28:04;;;;;;;8.13;7.63;;;1152.70;716.80;;;;;;5029996;28;20418;-61
2022/05/16 06:30:30;;;;;;;9.93;9.03;;;1178.10;691.20;;;;;;5030044;28;20033;-61
2022/05/16 06:32:56;;;;;;;8.95;8.38;;;1177.80;691.20;;;;;;5029828;28;20030;-62
2022/05/16 06:35:22;;;;;;;9.43;8.60;;;1178.10;691.20;;;;;;5029797;28;20033;-63
2022/05/16 06:37:48;;;;;;;9.75;9.02;;;1203.70;665.60;;;;;;5029676;28;20490;-62
2022/05/16 06:40:17;;;;;;;9.35;8.63;;;1203.20;716.80;;;;;;5029905;28;20021;-63
2022/05/16 06:42:44;;;;;;;9.65;9.15;;;1229.50;665.60;;;;;;5030053;28;20377;-63
2022/05/16 06:45:11;;;;;;;9.73;9.23;;;1203.70;691.20;;;;;;5030375;28;20022;-63
2022/05/16 06:47:36;;;;;;;9.90;9.30;;;1178.20;665.60;;;;;;5029616;28;20041;-63
2022/05/16 06:50:03;;;;;;;8.40;7.90;;;1177.80;691.20;;;;;;5030095;28;20036;-64
2022/05/16 06:52:28;;;;;;;10.63;9.93;;;1228.80;665.60;;;;;;5029618;28;20476;-59
2022/05/16 06:54:54;;;;;;;9.85;8.93;;;1228.90;691.20;;;;;;5029439;28;20036;-60
2022/05/16 06:57:20;;;;;;;10.23;9.52;;;1229.40;665.60;;;;;;5029842;28;20112;-62
2022/05/16 06:59:46;;;;;;;9.80;9.20;;;1203.20;691.20;;;;;;5029565;28;20239;-62
2022/05/16 07:02:12;;;;;;;10.35;9.75;;;1178.30;665.60;;;;;;5029979;28;20100;-61
2022/05/16 07:04:41;;;;;;;9.00;8.45;;;1203.80;665.60;;;;;;5029564;28;20033;-62
2022/05/16 07:07:10;;;;;;;10.30;9.50;;;1177.60;691.20;;;;;;5029471;28;20029;-62
2022/05/16 07:09:39;;;;;;;10.60;9.75;;;1203.70;665.60;;;;;;5029560;28;20030;-62
2022/05/16 07:12:07;;;;;;;11.27;10.32;;;1254.40;665.60;;;;;;5029422;28;20029;-62
2022/05/16 07:14:34;;;;;;;11.25;10.50;;;1203.30;691.20;;;;;;5029642;28;20065;-66
2022/05/16 07:17:03;;;;;;;14.25;12.32;;;1229.40;640.00;;;;;;5029657;28;20388;-66
2022/05/16 07:19:31;;;;;;;11.88;10.82;;;1254.90;640.00;;;;;;5029785;28;20079;-65
2022/05/16 07:21:58;;;;;;;22.15;13.48;;;1254.90;665.60;;;;;;5029383;28;20034;-66
2022/05/16 07:24:24;;;;;;;43.42;16.27;;;1255.00;640.00;;;;;;5029322;28;20046;-67
2022/05/16 07:29:36;;;;;;;17.73;12.57;;;1229.70;640.00;;;;;;5029714;28;20040;-68
2022/05/16 07:32:02;;;;;;;20.77;15.15;;;1255.10;640.00;;;;;;5029397;28;20021;-67
2022/05/16 07:34:27;;;;;;;11.52;10.73;;;1229.30;665.60;;;;;;5029105;28;20029;-69
2022/05/16 07:36:53;;;;;;;11.13;10.23;;;1255.10;640.00;;;;;;5029465;28;20026;-68
2022/05/16 07:39:19;;;;;;;11.90;10.75;;;1229.20;665.60;;;;;;5029581;28;20025;-68
2022/05/16 07:41:45;;;;;;;12.35;11.48;;;1229.40;640.00;;;;;;5029397;28;20022;-68
2022/05/16 07:44:11;;;;;;;12.27;11.45;;;1203.70;665.60;;;;;;5029637;28;20032;-67
2022/05/16 07:46:36;;;;;;;11.35;10.65;;;1254.90;640.00;;;;;;5029166;28;20387;-67
2022/05/16 07:49:02;;;;;;;11.85;11.25;;;1254.90;640.00;;;;;;5032911;28;20041;-68
2022/05/16 07:51:28;;;;;;;11.43;10.75;;;1280.40;614.40;;;;;;5032701;28;20028;-68
2022/05/16 07:53:55;;;;;;;11.60;10.80;;;1305.70;588.80;;;;;;5032916;28;20361;-65
2022/05/16 07:56:21;;;;;;;11.35;10.50;;;1254.90;640.00;;;;;;5033030;28;20025;-68
2022/05/16 07:58:47;;;;;;;8.80;8.10;;;1229.30;640.00;;;;;;5032738;28;20030;-68
2022/05/16 08:01:13;;;;;;;10.70;10.10;;;1203.90;614.40;;;;;;5032918;28;20101;-65
2022/05/16 08:03:38;;;;;;;10.32;9.73;;;1228.90;665.60;;;;;;5014997;28;20026;-64
2022/05/16 08:06:04;;;;;;;10.55;9.85;;;1203.80;640.00;;;;;;5032529;28;20026;-65
2022/05/16 08:11:14;;;;;;;10.18;9.27;;;1228.80;640.00;;;;;;5032664;28;20502;-64
2022/05/16 08:13:44;;;;;;;11.45;10.48;;;1152.40;691.20;;;;;;5032795;28;20022;-68
2022/05/16 08:16:10;;;;;;;9.68;9.07;;;1203.90;640.00;;;;;;5032599;28;20017;-67
2022/05/16 08:18:36;;;;;;;10.77;10.02;;;1178.20;640.00;;;;;;5032185;28;20025;-66
2022/05/16 08:21:02;;;;;;;8.20;7.60;;;1126.60;691.20;;;;;;5032672;28;20021;-73
2022/05/16 08:23:30;;;;;;;5.75;5.20;;;1024.60;742.40;;;;;;5032067;28;20029;-64
2022/05/16 08:25:56;;;;;;;4.60;4.20;;;947.60;819.20;;;;;;5032288;28;20044;-76
2022/05/16 08:28:23;;;;;;;4.07;3.72;;;896.70;844.80;;;;;;5032307;28;20041;-65
2022/05/16 08:30:49;;;;;;;4.00;3.40;;;871.10;870.40;;;;;;5032018;28;20025;-65
2022/05/16 08:33:15;;;;;;;3.88;3.35;;;870.40;896.00;;;;;;5032140;28;20443;-68
2022/05/16 08:35:41;;;;;;;5.22;3.63;;;845.70;921.60;;;;;;5032192;28;20025;-67
2022/05/16 08:40:59;;;;;;;5.65;2.88;;;845.20;896.00;;;;;;5032377;28;20458;-64
2022/05/16 08:43:43;;;;;;;5.43;3.33;;;845.30;921.60;;;;;;5031841;28;20037;-68
2022/05/16 08:46:38;;;;;;;3.17;2.88;;;845.40;921.60;;;;;;5031830;28;20555;-69
2022/05/16 08:49:45;;;;;;;5.03;2.90;;;819.90;870.40;;;;;;5032044;28;20369;-65
2022/05/16 08:52:20;;;;;;;3.20;2.63;;;819.50;896.00;;;;;;4932801;29;20433;-65
2022/05/16 08:55:22;;;;;;;4.80;2.70;;;794.40;896.00;;;;;;4932086;29;20382;-64
2022/05/16 08:57:53;;;;;;;5.30;2.58;;;819.30;896.00;;;;;;4932242;29;20043;-66
2022/05/16 09:00:27;;;;;;;8.48;3.13;;;819.30;921.60;;;;;;4932228;29;20032;-65
2022/05/16 09:02:56;;;;;;;3.15;2.47;;;794.40;921.60;;;;;;4932328;29;20047;-65
2022/05/16 09:05:29;;;;;;;3.25;2.35;;;794.40;921.60;;;;;;4932322;29;20027;-65
2022/05/16 09:07:58;;;;;;;3.72;2.58;;;794.00;921.60;;;;;;4916146;29;20044;-66
2022/05/16 09:10:47;;;;;;;3.78;2.42;;;794.40;896.00;;;;;;4916166;29;20035;-64
2022/05/16 09:13:15;;;;;;;3.00;2.25;;;793.70;921.60;;;;;;4931372;29;20042;-67
2022/05/16 09:16:25;;;;;;;3.60;2.83;;;768.90;896.00;;;;;;4932277;29;20552;-65
2022/05/16 09:19:03;;;;;;;4.57;2.63;;;794.20;921.60;;;;;;4923742;29;20036;-65
2022/05/16 09:21:55;;;;;;;3.67;2.50;;;793.70;921.60;;;;;;4931849;29;20083;-65
2022/05/16 09:24:28;;;;;;;5.43;3.10;;;793.60;947.20;;;;;;4904873;29;20435;-65
2022/05/16 09:26:53;;;;;;;;;;;768.90;921.60;;;;;;4888569;29;20032;-65
2022/05/16 09:29:45;;;;;;;3.65;2.47;;;793.80;896.00;;;;;;4933345;29;20292;-65
2022/05/16 09:32:31;;;;;;;4.15;2.80;;;794.20;947.20;;;;;;4931698;29;20258;-64
2022/05/16 09:34:57;;;;;;;7.07;2.67;;;768.90;921.60;;;;;;4931594;29;20064;-65
2022/05/16 09:37:23;;;;;;;6.10;2.53;;;768.30;870.40;;;;;;4931613;29;20063;-65
2022/05/16 09:39:52;;;;;;;2.97;2.20;;;793.70;947.20;;;;;;4931391;29;20110;-65
2022/05/16 09:42:32;;;;;;;4.13;1.88;;;793.70;896.00;;;;;;4931378;29;20513;-65
2022/05/16 09:45:03;;;;;;;3.17;2.00;;;793.80;870.40;;;;;;4931270;29;20087;-65
2022/05/16 09:47:28;;;;;;;2.70;1.90;;;793.90;844.80;;;;;;4931198;29;20439;-68
2022/05/16 09:50:02;;;;;;;3.03;2.30;;;794.00;819.20;;;;;;4931530;29;20095;-65
2022/05/16 09:52:42;;;;;;;3.28;2.35;;;794.20;844.80;;;;;;4931231;29;20036;-64
2022/05/16 09:55:12;;;;;;;3.35;2.22;;;794.10;921.60;;;;;;4931181;29;20044;-64
2022/05/16 09:57:49;;;;;;;3.25;2.22;;;794.20;921.60;;;;;;4931143;29;20036;-66
2022/05/16 10:00:24;;;;;;;3.13;2.55;;;794.00;972.80;;;;;;4932907;28;20534;-65
2022/05/16 10:02:59;;;;;;;2.95;2.10;;;794.10;921.60;;;;;;4969587;28;20039;-65
2022/05/16 10:05:27;;;;;;;3.40;2.13;;;794.20;896.00;;;;;;4969319;28;20023;-67
2022/05/16 10:08:05;;;;;;;3.20;2.22;;;794.00;870.40;;;;;;4969590;28;20031;-64
2022/05/16 10:10:39;;;;;;;2.97;2.30;;;743.30;896.00;;;;;;5010207;28;20026;-65
2022/05/16 10:13:05;;;;;;;2.33;1.95;;;768.60;870.40;;;;;;5010341;28;20040;-67
2022/05/16 10:15:33;;;;;;;3.28;2.10;;;768.20;870.40;;;;;;5010658;28;20026;-65
2022/05/16 10:18:02;;;;;;;4.70;2.80;;;768.50;921.60;;;;;;5010308;28;20033;-64
2022/05/16 10:20:42;;;;;;;6.10;3.03;;;768.30;896.00;;;;;;5010481;28;20030;-65
2022/05/16 10:23:17;;;;;;;4.38;2.40;;;768.40;921.60;;;;;;5010102;28;20473;-67
2022/05/16 10:25:45;;;;;;;3.88;2.30;;;768.70;947.20;;;;;;5029888;28;20088;-69
2022/05/16 10:28:27;;;;;;;4.63;2.17;;;768.60;870.40;;;;;;5030261;28;20037;-67
2022/05/16 10:33:40;;;;;;;3.20;2.38;;;768.70;870.40;;;;;;5030235;28;20068;-64
2022/05/16 10:36:09;;;;;;;4.28;2.38;;;768.60;870.40;;;;;;5029777;28;20464;-66
2022/05/16 10:38:54;;;;;;;3.00;2.35;;;768.10;896.00;;;;;;5029932;28;20029;-68
2022/05/16 10:41:32;;;;;;;3.03;2.10;;;768.20;896.00;;;;;;5029999;28;20021;-66
2022/05/16 10:44:11;;;;;;;2.63;2.00;;;768.30;896.00;;;;;;5029806;28;20028;-65
2022/05/16 10:46:42;;;;;;;5.13;2.95;;;743.00;870.40;;;;;;5029681;28;20084;-67
2022/05/16 10:49:19;;;;;;;2.28;1.80;;;743.20;870.40;;;;;;5029561;28;20063;-65
2022/05/16 10:51:52;;;;;;;2.67;2.20;;;768.10;819.20;;;;;;5029603;28;20116;-67
2022/05/16 10:54:27;;;;;;;5.03;2.10;;;768.00;819.20;;;;;;5029425;28;20025;-65
2022/05/16 10:57:13;;;;;;;2.42;1.98;;;768.10;819.20;;;;;;5029881;28;20029;-64
2022/05/16 10:59:51;;;;;;;2.78;1.98;;;768.30;870.40;;;;;;5029592;28;20439;-70
2022/05/16 11:02:46;;;;;;;5.43;2.25;;;768.40;870.40;;;;;;5029544;28;20472;-64
2022/05/16 11:05:24;;;;;;;2.92;2.00;;;768.50;870.40;;;;;;5030113;28;20025;-66
2022/05/16 11:07:56;;;;;;;3.38;2.13;;;768.40;844.80;;;;;;5029579;28;20040;-65
2022/05/16 11:10:32;;;;;;;4.72;2.70;;;768.00;844.80;;;;;;5029855;28;20025;-65
2022/05/16 11:13:09;;;;;;;3.20;2.35;;;768.10;896.00;;;;;;5029547;28;20049;-65
2022/05/16 11:15:51;;;;;;;2.80;2.10;;;743.20;844.80;;;;;;5029361;28;20021;-68
2022/05/16 11:18:22;;;;;;;4.60;2.22;;;743.30;921.60;;;;;;5029549;28;20029;-68
2022/05/16 11:21:33;;;;;;;3.50;2.25;;;743.10;896.00;;;;;;5029517;28;20033;-66
2022/05/16 11:24:05;;;;;;;2.70;2.03;;;743.10;870.40;;;;;;4978418;28;20116;-66
2022/05/16 11:26:47;;;;;;;4.80;2.05;;;742.90;844.80;;;;;;5033371;28;20112;-69
2022/05/16 11:29:39;;;;;;;6.82;2.20;;;743.00;819.20;;;;;;5033467;28;20045;-67
2022/05/16 11:32:26;;;;;;;4.13;2.25;;;743.20;819.20;;;;;;5033107;28;20499;-65
2022/05/16 11:35:07;;;;;;;3.08;2.20;;;768.30;870.40;;;;;;5033333;28;20030;-66
2022/05/16 11:38:10;;;;;;;4.22;1.90;;;768.40;844.80;;;;;;5033280;28;20034;-66
2022/05/16 11:40:59;;;;;;;4.07;2.20;;;768.10;819.20;;;;;;5033018;28;20022;-68
2022/05/16 11:43:28;;;;;;;3.83;2.28;;;743.30;844.80;;;;;;5012655;28;20412;-67
2022/05/16 11:46:16;;;;;;;2.78;2.00;;;768.10;844.80;;;;;;5031484;28;20040;-66
2022/05/16 11:48:59;;;;;;;3.38;2.45;;;768.30;819.20;;;;;;5031375;28;20045;-66
2022/05/16 11:51:40;;;;;;;6.40;2.13;;;768.10;844.80;;;;;;5031088;28;20022;-67
2022/05/16 11:54:08;;;;;;;3.70;2.17;;;768.10;870.40;;;;;;5031150;28;20030;-65
2022/05/16 12:02:33;;;;;;;3.13;2.15;;;743.30;819.20;;;;;;5031270;28;20403;-65
2022/05/16 12:05:01;;;;;;;2.75;2.05;;;768.10;819.20;;;;;;5031393;28;20371;-69
2022/05/16 12:07:35;;;;;;;13.75;3.33;;;768.30;844.80;;;;;;5031235;28;20076;-69
2022/05/16 12:10:10;;;;;;;2.70;1.70;;;768.40;870.40;;;;;;5033145;28;20357;-65
2022/05/16 12:12:43;;;;;;;2.53;1.83;;;768.30;819.20;;;;;;5032337;28;20483;-66
2022/05/16 12:15:24;;;;;;;2.78;2.00;;;768.10;819.20;;;;;;5032447;28;20107;-64
2022/05/16 12:17:51;;;;;;;3.25;2.17;;;768.10;819.20;;;;;;5032391;28;20032;-66
2022/05/16 12:20:32;;;;;;;3.85;1.80;;;768.30;819.20;;;;;;5032215;28;20022;-66
2022/05/16 12:22:58;;;;;;;4.82;2.67;;;768.30;844.80;;;;;;5032102;28;20030;-66
2022/05/16 12:25:30;;;;;;;2.92;1.98;;;768.40;844.80;;;;;;5032313;28;20412;-66
2022/05/16 12:28:19;;;;;;;3.35;1.90;;;768.50;844.80;;;;;;5013391;28;20045;-66
2022/05/16 12:30:56;;;;;;;2.58;1.90;;;768.50;844.80;;;;;;5032015;28;20049;-65
2022/05/16 12:33:40;;;;;;;4.03;2.10;;;768.30;844.80;;;;;;5032049;28;20030;-67
2022/05/16 12:36:20;;;;;;;2.65;2.00;;;768.10;819.20;;;;;;5032003;28;20045;-66
2022/05/16 12:38:56;;;;;;;2.15;1.80;;;768.40;844.80;;;;;;5031787;28;20556;-65
2022/05/16 12:41:44;;;;;;;3.55;1.95;;;768.40;819.20;;;;;;5031936;28;20501;-69
2022/05/16 12:44:43;;;;;;;3.33;2.03;;;768.60;844.80;;;;;;5032034;28;20041;-65
2022/05/16 12:47:37;;;;;;;5.28;2.08;;;768.10;819.20;;;;;;5031829;28;20387;-66
2022/05/16 12:50:33;;;;;;;3.33;1.85;;;768.40;844.80;;;;;;5031835;28;20029;-69
2022/05/16 12:53:23;;;;;;;3.38;2.25;;;768.40;844.80;;;;;;5029547;28;20064;-68
2022/05/16 12:55:52;;;;;;;3.85;2.47;;;768.40;819.20;;;;;;5030082;28;20034;-68
2022/05/16 12:58:32;;;;;;;2.92;2.22;;;768.40;844.80;;;;;;5030190;28;20498;-66
2022/05/16 13:01:24;;;;;;;5.15;2.60;;;768.40;896.00;;;;;;5029941;28;20484;-65
2022/05/16 13:04:06;;;;;;;3.75;2.15;;;768.70;870.40;;;;;;5016703;28;20037;-66
2022/05/16 13:06:32;;;;;;;3.33;2.23;;;768.60;844.80;;;;;;5029638;28;20037;-68
2022/05/16 13:09:21;;;;;;;3.30;2.45;;;768.70;844.80;;;;;;5029813;28;20460;-69